Terminal Aerodrome Forecast
Issued by NWS Bismarck, ND

Home | Current Version | Previous Version | Text Only | Print | Product List | Glossary Off
Versions: 1 2 3 4 5 6 7 8 9 10 11 12 13

000
FTUS43 KBIS 190535
TAFBIS
TAF
KBIS 190535Z 1906/2006 VRB03KT P6SM BKN250
     FM191400 29006KT P6SM SCT080 BKN100
     FM192000 27007KT P6SM SCT100 SCT180=

USA.gov is the U.S. government's official web portal to all federal, state and local government web resources and services.